Time;durP1;ratioP1;P1;durP2;ratioP2;P2;SDS_P1;SDS_P2;PMS_P1;PMS_P2;Temp;Humidity;BMP_temperature;BMP_pressure;BME280_temperature;BME280_humidity;BME280_pressure;Samples;Min_cycle;Max_cycle;Signal;HPM_P1;HPM_P2
2021/11/21 05:00:27;;;;;;;13.20;9.57;;;5.70;99.90;;;;;;6022305;23;20424;-70
2021/11/21 05:02:54;;;;;;;14.37;10.37;;;5.70;99.90;;;;;;5019141;28;20911;-69
2021/11/21 05:05:23;;;;;;;12.50;9.93;;;5.70;99.90;;;;;;5016555;28;20453;-69
2021/11/21 05:07:50;;;;;;;14.23;11.30;;;5.80;99.90;;;;;;5016590;28;20473;-70
2021/11/21 05:10:18;;;;;;;13.60;11.77;;;5.80;99.90;;;;;;5016380;28;20488;-69
2021/11/21 05:12:45;;;;;;;15.47;11.63;;;5.90;99.90;;;;;;5016303;28;20507;-69
2021/11/21 05:15:15;;;;;;;14.57;11.63;;;5.90;99.90;;;;;;5016973;28;20457;-69
2021/11/21 05:17:45;;;;;;;12.50;10.10;;;5.90;99.90;;;;;;5016427;28;20890;-68
2021/11/21 05:20:13;;;;;;;12.17;10.70;;;6.00;99.90;;;;;;5016246;28;20856;-68
2021/11/21 05:22:39;;;;;;;11.20;9.13;;;5.90;99.90;;;;;;5016752;28;20544;-70
2021/11/21 05:25:07;;;;;;;11.70;9.50;;;6.00;99.90;;;;;;5016173;28;20528;-69
2021/11/21 05:27:34;;;;;;;13.23;9.50;;;6.10;99.90;;;;;;5016178;28;20551;-69
2021/11/21 05:30:00;;;;;;;12.87;9.90;;;6.10;99.90;;;;;;5016722;28;20453;-69
2021/11/21 05:32:27;;;;;;;11.97;8.30;;;6.10;99.90;;;;;;5017731;28;20868;-68
2021/11/21 05:34:55;;;;;;;10.80;8.70;;;6.00;99.90;;;;;;5015563;28;20851;-68
2021/11/21 05:37:22;;;;;;;11.43;8.63;;;6.10;99.90;;;;;;5015779;28;20530;-69
2021/11/21 05:39:48;;;;;;;12.20;9.40;;;6.10;99.90;;;;;;5015941;28;20453;-69
2021/11/21 05:42:15;;;;;;;9.90;8.13;;;6.10;99.90;;;;;;5015924;28;20477;-69
2021/11/21 05:44:42;;;;;;;10.27;8.43;;;6.10;99.90;;;;;;5015629;28;20453;-70
2021/11/21 05:47:09;;;;;;;15.23;9.30;;;6.10;99.90;;;;;;5015634;28;20440;-69
2021/11/21 05:49:36;;;;;;;13.20;10.13;;;6.10;99.90;;;;;;5016420;28;20531;-68
2021/11/21 05:52:05;;;;;;;11.03;8.17;;;6.10;99.90;;;;;;5016598;28;20481;-69
2021/11/21 05:54:31;;;;;;;11.93;9.17;;;6.10;99.90;;;;;;5015886;28;20512;-70
2021/11/21 05:56:58;;;;;;;14.07;10.20;;;6.10;99.90;;;;;;5015650;28;20503;-69
2021/11/21 05:59:25;;;;;;;12.80;9.17;;;6.10;99.90;;;;;;5015620;28;20453;-69
2021/11/21 06:01:51;;;;;;;13.13;8.33;;;6.00;99.90;;;;;;5015181;28;20485;-69
2021/11/21 06:04:18;;;;;;;14.37;10.23;;;6.00;99.90;;;;;;5015595;28;20460;-69
2021/11/21 06:06:45;;;;;;;14.10;9.63;;;5.80;99.90;;;;;;5015334;28;20453;-68
2021/11/21 06:09:13;;;;;;;13.77;9.60;;;5.80;99.90;;;;;;5015006;28;20991;-69
2021/11/21 06:11:39;;;;;;;14.67;9.67;;;5.70;99.90;;;;;;5015170;28;20828;-69
2021/11/21 06:14:06;;;;;;;18.27;10.60;;;5.70;99.90;;;;;;5015005;28;20933;-68
2021/11/21 06:16:33;;;;;;;17.10;11.93;;;5.70;99.90;;;;;;5015027;28;20507;-69
2021/11/21 06:19:00;;;;;;;18.07;12.03;;;5.70;99.90;;;;;;5015173;28;20458;-69
2021/11/21 06:21:26;;;;;;;16.57;10.53;;;5.80;99.90;;;;;;5015049;28;20523;-69
2021/11/21 06:23:53;;;;;;;17.43;12.17;;;5.80;99.90;;;;;;5015057;28;20464;-69
2021/11/21 06:26:21;;;;;;;16.73;10.90;;;5.90;99.90;;;;;;5014894;28;20944;-70
2021/11/21 06:28:48;;;;;;;19.13;11.80;;;5.90;99.90;;;;;;5018942;28;20508;-68
2021/11/21 06:31:15;;;;;;;12.80;9.07;;;5.90;99.90;;;;;;5018430;28;20484;-69
2021/11/21 06:33:41;;;;;;;14.17;10.60;;;5.90;99.90;;;;;;5015334;28;20833;-70
2021/11/21 06:36:08;;;;;;;17.30;10.50;;;5.90;99.90;;;;;;5014745;28;20484;-69
2021/11/21 06:38:35;;;;;;;13.43;8.83;;;5.80;99.90;;;;;;5014598;28;20504;-71
2021/11/21 06:41:01;;;;;;;17.63;10.23;;;5.80;99.90;;;;;;5015013;28;20473;-69
2021/11/21 06:43:29;;;;;;;14.20;9.77;;;5.80;99.90;;;;;;5015079;28;20457;-68
2021/11/21 06:45:56;;;;;;;17.30;10.07;;;5.90;99.90;;;;;;5014107;28;20453;-69
2021/11/21 06:48:23;;;;;;;18.47;10.83;;;5.90;99.90;;;;;;5014754;28;20542;-69
2021/11/21 06:50:53;;;;;;;19.67;11.43;;;5.80;99.90;;;;;;5014736;28;20477;-66
2021/11/21 06:53:20;;;;;;;15.00;10.27;;;5.80;99.90;;;;;;5014816;28;20453;-68
2021/11/21 06:55:47;;;;;;;14.80;11.43;;;5.90;99.90;;;;;;5014736;28;20460;-68
2021/11/21 06:58:14;;;;;;;13.93;11.20;;;5.90;99.90;;;;;;5014886;28;20540;-69
2021/11/21 07:00:42;;;;;;;12.63;11.33;;;6.00;99.90;;;;;;5014497;28;20477;-68
2021/11/21 07:03:08;;;;;;;17.27;13.10;;;6.00;99.90;;;;;;5015179;28;20481;-68
2021/11/21 07:05:35;;;;;;;12.43;11.07;;;6.00;99.90;;;;;;5015559;28;20453;-70
2021/11/21 07:08:02;;;;;;;16.37;11.43;;;6.00;99.90;;;;;;5014573;28;20476;-70
2021/11/21 07:10:29;;;;;;;13.47;10.03;;;6.00;99.90;;;;;;5014601;28;20460;-69
2021/11/21 07:12:56;;;;;;;16.27;10.90;;;5.90;99.90;;;;;;5014596;28;20457;-70
2021/11/21 07:15:22;;;;;;;20.30;12.37;;;5.90;99.90;;;;;;5014286;28;21016;-69
2021/11/21 07:17:52;;;;;;;28.93;15.20;;;5.90;99.90;;;;;;5014443;28;20457;-69
2021/11/21 07:20:19;;;;;;;25.80;16.83;;;5.90;99.90;;;;;;5014162;28;20455;-70
2021/11/21 07:22:47;;;;;;;29.30;17.93;;;5.90;99.90;;;;;;5014618;28;20198;-71
2021/11/21 07:25:15;;;;;;;26.70;16.77;;;5.80;99.90;;;;;;5014750;28;20464;-71
2021/11/21 07:27:42;;;;;;;28.23;17.60;;;5.70;99.90;;;;;;5014691;28;20446;-69
2021/11/21 07:30:10;;;;;;;29.13;17.27;;;5.60;99.90;;;;;;5015694;28;20481;-70
2021/11/21 07:32:36;;;;;;;25.40;16.00;;;5.50;99.90;;;;;;5014596;28;20953;-69
2021/11/21 07:35:05;;;;;;;23.60;15.33;;;5.40;99.90;;;;;;5014402;28;20507;-70
2021/11/21 07:37:32;;;;;;;27.40;16.37;;;5.40;99.90;;;;;;5014210;28;20461;-70
2021/11/21 07:39:59;;;;;;;26.53;16.57;;;5.30;99.90;;;;;;5014349;28;20460;-66
2021/11/21 07:42:25;;;;;;;23.70;15.57;;;5.20;99.90;;;;;;5013939;28;20480;-70
2021/11/21 07:44:53;;;;;;;30.23;19.30;;;5.60;99.90;;;;;;5014525;28;20480;-69
2021/11/21 07:47:21;;;;;;;25.53;16.83;;;5.90;99.90;;;;;;5016090;28;20874;-69
2021/11/21 07:49:47;;;;;;;26.73;17.87;;;6.30;99.90;;;;;;5013829;28;20474;-71
2021/11/21 07:52:15;;;;;;;22.57;16.53;;;6.60;99.90;;;;;;5014183;28;20485;-70
2021/11/21 07:54:45;;;;;;;23.40;18.00;;;6.60;99.90;;;;;;5014128;28;20461;-70
2021/11/21 07:57:11;;;;;;;25.37;17.20;;;6.60;99.90;;;;;;5023809;28;20988;-69
2021/11/21 07:59:38;;;;;;;27.03;18.10;;;6.50;99.90;;;;;;5029015;28;20441;-70
2021/11/21 08:02:05;;;;;;;25.33;18.80;;;6.30;99.90;;;;;;5017931;28;20489;-69
2021/11/21 08:04:32;;;;;;;29.77;19.17;;;6.30;99.90;;;;;;5018177;28;20457;-69
2021/11/21 08:06:59;;;;;;;29.07;19.57;;;6.20;99.90;;;;;;5018010;28;20457;-69
2021/11/21 08:09:27;;;;;;;28.67;19.70;;;6.20;99.90;;;;;;5017707;28;20535;-71
2021/11/21 08:11:54;;;;;;;24.97;17.60;;;6.10;99.90;;;;;;5018692;28;20472;-68
2021/11/21 08:14:20;;;;;;;25.63;18.00;;;6.10;99.90;;;;;;5018474;28;20515;-69
2021/11/21 08:16:48;;;;;;;24.90;17.47;;;6.00;99.90;;;;;;5020409;28;20453;-72
2021/11/21 08:19:15;;;;;;;23.13;16.43;;;5.80;99.90;;;;;;5019186;28;20536;-72
2021/11/21 08:21:41;;;;;;;28.50;20.33;;;5.70;99.90;;;;;;5018187;28;21022;-72
2021/11/21 08:24:08;;;;;;;28.03;18.57;;;5.60;99.90;;;;;;5017640;28;20465;-72
2021/11/21 08:26:37;;;;;;;25.90;16.30;;;5.60;99.90;;;;;;5017387;28;20453;-72
2021/11/21 08:29:04;;;;;;;25.90;18.07;;;5.60;99.90;;;;;;5017560;28;20473;-72
2021/11/21 08:31:31;;;;;;;24.50;16.67;;;5.70;99.90;;;;;;5018066;28;20523;-72
2021/11/21 08:33:57;;;;;;;23.03;18.07;;;5.70;99.90;;;;;;5018759;28;20461;-72
2021/11/21 08:36:24;;;;;;;23.00;16.83;;;5.60;99.90;;;;;;5022154;28;20454;-72
2021/11/21 08:38:51;;;;;;;23.50;15.80;;;5.50;99.90;;;;;;5017066;28;20464;-70
2021/11/21 08:41:18;;;;;;;22.10;16.33;;;5.40;99.90;;;;;;5017088;28;20473;-71
2021/11/21 08:43:46;;;;;;;24.33;17.00;;;5.50;99.90;;;;;;5029523;28;20459;-70
2021/11/21 08:46:13;;;;;;;21.20;14.70;;;5.50;99.90;;;;;;5024458;28;20504;-70
2021/11/21 08:48:40;;;;;;;19.83;13.10;;;5.60;99.90;;;;;;5016998;28;21064;-70
2021/11/21 08:51:06;;;;;;;23.47;15.60;;;5.60;99.90;;;;;;5016548;28;20554;-70
2021/11/21 08:53:33;;;;;;;19.33;13.73;;;5.70;99.90;;;;;;5017072;28;20441;-70
2021/11/21 08:56:00;;;;;;;21.43;13.57;;;5.70;99.90;;;;;;5016825;28;20441;-70
2021/11/21 08:58:26;;;;;;;17.30;13.50;;;5.70;99.90;;;;;;5016911;28;20453;-70
2021/11/21 09:00:55;;;;;;;19.73;14.10;;;5.70;99.90;;;;;;5016360;28;20894;-70
2021/11/21 09:03:21;;;;;;;18.47;13.77;;;5.70;99.90;;;;;;5016614;28;20835;-70
2021/11/21 09:05:48;;;;;;;19.97;13.93;;;5.60;99.90;;;;;;5016313;28;20458;-70
2021/11/21 09:08:15;;;;;;;18.40;13.93;;;5.70;99.90;;;;;;5015283;28;20461;-70
2021/11/21 09:10:42;;;;;;;18.03;14.03;;;5.70;99.90;;;;;;5016452;28;20481;-70
2021/11/21 09:13:09;;;;;;;20.17;14.63;;;5.70;99.90;;;;;;5016588;28;20552;-70
2021/11/21 09:15:36;;;;;;;18.83;14.23;;;5.70;99.90;;;;;;5016307;28;20461;-70
2021/11/21 09:18:04;;;;;;;18.13;12.93;;;5.70;99.90;;;;;;5016461;28;20457;-70
2021/11/21 09:20:30;;;;;;;17.33;12.30;;;5.80;99.90;;;;;;5016035;28;20433;-70
2021/11/21 09:22:58;;;;;;;23.20;14.07;;;5.80;99.90;;;;;;5016229;28;20515;-70
2021/11/21 09:25:25;;;;;;;22.47;14.17;;;5.90;99.90;;;;;;5016379;28;20548;-70
2021/11/21 09:27:52;;;;;;;20.77;14.20;;;5.90;99.90;;;;;;5016125;28;20457;-70
2021/11/21 09:30:19;;;;;;;24.03;15.10;;;5.90;99.90;;;;;;5016568;28;20482;-70
2021/11/21 09:32:46;;;;;;;23.83;15.80;;;6.00;99.90;;;;;;5017691;28;20502;-70
2021/11/21 09:35:14;;;;;;;18.73;14.17;;;5.90;99.90;;;;;;5017289;28;20461;-70
2021/11/21 09:37:41;;;;;;;23.50;13.87;;;6.00;99.90;;;;;;5017519;28;20458;-70
2021/11/21 09:40:12;;;;;;;20.27;14.17;;;6.00;99.90;;;;;;5017387;28;20464;-70
2021/11/21 09:42:39;;;;;;;20.97;14.27;;;5.90;99.90;;;;;;5017718;28;20442;-70
2021/11/21 09:45:08;;;;;;;22.03;12.90;;;5.90;99.90;;;;;;5017908;28;20858;-70
2021/11/21 09:47:35;;;;;;;23.33;14.87;;;5.90;99.90;;;;;;5015911;28;20457;-70
2021/11/21 09:50:04;;;;;;;20.00;13.37;;;5.80;99.90;;;;;;5015422;28;20481;-70
2021/11/21 09:52:32;;;;;;;17.97;11.60;;;5.70;99.90;;;;;;5015622;28;20480;-70
2021/11/21 09:54:59;;;;;;;21.00;14.00;;;5.60;99.90;;;;;;5015267;28;20945;-70
2021/11/21 09:57:28;;;;;;;19.30;13.10;;;5.50;99.90;;;;;;5015614;28;20540;-70
2021/11/21 09:59:59;;;;;;;20.63;13.73;;;5.50;99.90;;;;;;5015487;28;20461;-70
2021/11/21 10:02:30;;;;;;;20.57;14.43;;;5.50;99.90;;;;;;5015046;28;20512;-70
2021/11/21 10:04:58;;;;;;;19.60;13.13;;;5.50;99.90;;;;;;5015657;28;20437;-70
2021/11/21 10:07:27;;;;;;;19.90;12.77;;;5.40;99.90;;;;;;5016835;28;20456;-70
2021/11/21 10:09:57;;;;;;;18.20;11.70;;;5.40;99.90;;;;;;5015579;28;20508;-70
2021/11/21 10:12:24;;;;;;;17.77;12.90;;;5.50;99.90;;;;;;5016137;28;20523;-70
2021/11/21 10:14:57;;;;;;;17.93;12.13;;;5.50;99.90;;;;;;5015631;28;20948;-70
2021/11/21 10:17:26;;;;;;;18.00;10.90;;;5.50;99.90;;;;;;5014985;28;20478;-70
2021/11/21 10:20:19;;;;;;;18.10;11.37;;;5.50;99.90;;;;;;5015100;28;20457;-70
2021/11/21 10:23:02;;;;;;;20.80;11.40;;;5.50;99.90;;;;;;5016036;28;20437;-69
2021/11/21 10:25:46;;;;;;;13.97;9.20;;;5.60;99.90;;;;;;5014572;28;20515;-71
2021/11/21 10:28:17;;;;;;;15.43;9.67;;;5.60;99.90;;;;;;5014794;28;20979;-70
2021/11/21 10:31:11;;;;;;;15.03;9.87;;;5.50;99.90;;;;;;5014546;28;20481;-69
2021/11/21 10:33:42;;;;;;;14.50;9.37;;;5.50;99.90;;;;;;5014993;28;20438;-69
2021/11/21 10:36:11;;;;;;;13.03;8.80;;;5.50;99.90;;;;;;5014571;28;20438;-70
2021/11/21 10:38:50;;;;;;;13.00;8.80;;;5.50;99.90;;;;;;5014553;28;20460;-69
2021/11/21 10:41:21;;;;;;;12.10;9.17;;;5.60;99.90;;;;;;5014576;28;20484;-70
2021/11/21 10:44:01;;;;;;;13.23;8.00;;;5.60;99.90;;;;;;5014761;28;20442;-69
2021/11/21 10:46:40;;;;;;;11.50;7.73;;;5.60;99.90;;;;;;5014962;28;20512;-69
2021/11/21 10:49:19;;;;;;;10.77;7.37;;;5.60;99.90;;;;;;5014438;28;20440;-69
2021/11/21 10:51:49;;;;;;;9.17;6.93;;;5.60;99.90;;;;;;5014611;28;20480;-70
2021/11/21 10:54:21;;;;;;;10.53;8.10;;;5.60;99.90;;;;;;5014313;28;20937;-70
2021/11/21 10:56:51;;;;;;;12.17;8.30;;;5.60;99.90;;;;;;5014672;28;20463;-70
2021/11/21 10:59:33;;;;;;;10.07;7.70;;;5.60;99.90;;;;;;5015677;28;20449;-70
2021/11/21 11:02:08;;;;;;;14.10;8.70;;;5.50;99.90;;;;;;5014079;28;20500;-70
2021/11/21 11:04:35;;;;;;;10.93;8.87;;;5.50;99.90;;;;;;5014433;28;20453;-69
2021/11/21 11:07:15;;;;;;;13.20;7.17;;;5.60;99.90;;;;;;5014655;28;20453;-70
2021/11/21 11:09:42;;;;;;;8.63;6.60;;;5.60;99.90;;;;;;5014857;28;20548;-69
2021/11/21 11:12:11;;;;;;;9.67;7.03;;;5.60;99.90;;;;;;5014177;28;20883;-70
2021/11/21 11:14:38;;;;;;;12.00;7.97;;;5.70;99.90;;;;;;5013969;28;21010;-70
2021/11/21 11:17:05;;;;;;;10.20;7.07;;;5.70;99.90;;;;;;5014323;28;20453;-70
2021/11/21 11:19:34;;;;;;;13.87;8.47;;;5.80;99.90;;;;;;5014329;28;20770;-71
2021/11/21 11:22:00;;;;;;;12.13;8.10;;;5.80;99.90;;;;;;5014170;28;21018;-71
2021/11/21 11:24:28;;;;;;;10.67;7.37;;;5.90;99.90;;;;;;5014067;28;20979;-70
2021/11/21 11:27:01;;;;;;;10.67;8.43;;;5.90;99.90;;;;;;5014248;28;20457;-70
2021/11/21 11:29:36;;;;;;;11.97;8.80;;;5.90;99.90;;;;;;5013865;28;20860;-70
2021/11/21 11:32:23;;;;;;;11.70;8.83;;;5.90;99.90;;;;;;5016683;28;20480;-69
2021/11/21 11:34:50;;;;;;;9.80;7.53;;;5.90;99.90;;;;;;5018031;28;20445;-70
2021/11/21 11:37:35;;;;;;;12.73;9.30;;;6.00;99.90;;;;;;5019052;28;20444;-70
2021/11/21 11:40:03;;;;;;;8.63;7.17;;;6.00;99.90;;;;;;5020965;28;20437;-69
2021/11/21 11:42:38;;;;;;;13.10;7.77;;;6.10;99.90;;;;;;5018104;28;20477;-70
2021/11/21 11:45:09;;;;;;;9.50;7.93;;;6.10;99.90;;;;;;5017670;28;20441;-70
2021/11/21 11:47:38;;;;;;;10.53;7.40;;;6.20;99.90;;;;;;5018670;28;20457;-69
2021/11/21 11:50:06;;;;;;;9.97;7.63;;;6.20;99.90;;;;;;5017987;28;20476;-70
2021/11/21 11:52:58;;;;;;;8.77;7.50;;;6.40;99.90;;;;;;5019089;28;20477;-70
2021/11/21 11:55:28;;;;;;;8.70;6.60;;;6.40;99.90;;;;;;5017730;28;20453;-70
2021/11/21 11:57:55;;;;;;;9.20;7.63;;;6.40;99.90;;;;;;5020657;28;20552;-69
2021/11/21 12:00:35;;;;;;;8.83;7.37;;;6.40;99.90;;;;;;5019075;28;20453;-73
2021/11/21 12:03:21;;;;;;;9.17;7.67;;;6.50;99.90;;;;;;5019035;28;20839;-70
2021/11/21 12:06:04;;;;;;;7.40;6.60;;;6.60;99.90;;;;;;5017950;28;20452;-70
2021/11/21 12:08:31;;;;;;;8.63;7.73;;;6.60;99.90;;;;;;5019339;28;20440;-70
2021/11/21 12:10:57;;;;;;;9.77;8.47;;;6.60;99.90;;;;;;5017454;28;20481;-70
2021/11/21 12:13:30;;;;;;;8.67;7.67;;;6.60;99.90;;;;;;5017316;28;20445;-70
2021/11/21 12:16:01;;;;;;;8.80;7.90;;;6.70;99.90;;;;;;5017547;28;20453;-70
2021/11/21 12:18:52;;;;;;;9.30;7.33;;;6.70;99.90;;;;;;5017819;28;20441;-70
2021/11/21 12:21:38;;;;;;;8.10;7.27;;;6.70;99.90;;;;;;5017046;28;20559;-69
2021/11/21 12:24:06;;;;;;;9.60;7.70;;;6.80;99.90;;;;;;5018061;28;20495;-69
2021/11/21 12:26:38;;;;;;;8.43;7.17;;;6.80;99.90;;;;;;5017355;28;20879;-70
2021/11/21 12:29:11;;;;;;;9.10;8.13;;;6.80;99.90;;;;;;5017389;28;20453;-69
2021/11/21 12:31:42;;;;;;;7.13;6.43;;;6.90;99.90;;;;;;5016981;28;20485;-70
2021/11/21 12:34:34;;;;;;;7.97;7.17;;;6.90;99.90;;;;;;5016904;28;20930;-69
2021/11/21 12:37:13;;;;;;;8.07;6.97;;;6.80;99.90;;;;;;5017498;28;20452;-70
2021/11/21 12:39:41;;;;;;;7.47;6.77;;;6.80;99.90;;;;;;5017238;28;20437;-70
2021/11/21 12:42:10;;;;;;;8.97;8.07;;;6.80;99.90;;;;;;5016873;28;20940;-70
2021/11/21 12:44:38;;;;;;;8.87;7.47;;;6.80;99.90;;;;;;5016674;28;20457;-66
2021/11/21 12:47:07;;;;;;;8.83;6.40;;;6.90;99.90;;;;;;5016839;28;20461;-67
2021/11/21 12:49:34;;;;;;;7.90;7.10;;;7.20;99.90;;;;;;5016292;28;20904;-66
2021/11/21 12:52:03;;;;;;;8.93;7.20;;;7.40;99.90;;;;;;5016757;28;20477;-66
2021/11/21 12:54:30;;;;;;;7.17;6.47;;;7.70;99.90;;;;;;5016425;28;21016;-66
2021/11/21 12:56:57;;;;;;;7.60;6.87;;;8.00;99.90;;;;;;5016729;28;20453;-66
2021/11/21 12:59:45;;;;;;;7.17;6.47;;;8.10;99.90;;;;;;5016732;28;20460;-66
2021/11/21 13:02:14;;;;;;;7.27;6.57;;;8.20;99.90;;;;;;5016366;28;20473;-66
2021/11/21 13:04:53;;;;;;;6.60;6.00;;;8.30;99.90;;;;;;5016660;28;20453;-71
2021/11/21 13:07:28;;;;;;;5.80;5.30;;;8.40;99.90;;;;;;5016894;28;20438;-69
2021/11/21 13:10:09;;;;;;;7.27;5.87;;;8.30;99.90;;;;;;5016616;28;20483;-70
2021/11/21 13:12:38;;;;;;;8.83;6.27;;;8.20;99.90;;;;;;5017454;28;20484;-69
2021/11/21 13:15:09;;;;;;;7.30;6.60;;;8.10;99.90;;;;;;5018551;28;20449;-69
2021/11/21 13:17:39;;;;;;;6.90;6.20;;;8.00;99.90;;;;;;5017134;28;20453;-70
2021/11/21 13:20:15;;;;;;;6.70;6.10;;;7.90;99.90;;;;;;5016453;28;20450;-69
2021/11/21 13:22:54;;;;;;;8.73;6.57;;;7.80;99.90;;;;;;5016750;28;20437;-71
2021/11/21 13:25:53;;;;;;;6.97;6.27;;;7.70;99.90;;;;;;5016550;28;20457;-72
2021/11/21 13:28:35;;;;;;;6.73;6.13;;;7.60;99.90;;;;;;5016686;28;20434;-71
2021/11/21 13:31:05;;;;;;;7.20;6.50;;;7.50;99.90;;;;;;5016342;28;20484;-70
2021/11/21 13:33:36;;;;;;;8.23;6.37;;;7.30;99.90;;;;;;5016493;28;20909;-70
2021/11/21 13:36:09;;;;;;;6.47;5.73;;;7.20;99.90;;;;;;5016753;28;20453;-71
2021/11/21 13:38:36;;;;;;;7.73;6.47;;;7.10;99.90;;;;;;5016545;28;20476;-70
2021/11/21 13:41:04;;;;;;;7.63;6.93;;;7.00;99.90;;;;;;5015554;28;20473;-69
2021/11/21 13:43:36;;;;;;;8.17;6.80;;;6.90;99.90;;;;;;5016132;28;20935;-71
2021/11/21 13:46:03;;;;;;;7.43;6.80;;;6.80;99.90;;;;;;5015833;28;20453;-70
2021/11/21 13:48:33;;;;;;;7.43;6.27;;;6.90;99.90;;;;;;5015915;28;20851;-72
2021/11/21 13:51:02;;;;;;;7.50;6.70;;;6.90;99.90;;;;;;5015688;28;20547;-69
2021/11/21 13:53:47;;;;;;;9.00;8.17;;;6.80;99.90;;;;;;5015602;28;20460;-69
2021/11/21 13:56:15;;;;;;;10.47;8.57;;;6.80;99.90;;;;;;5015915;28;20441;-69
2021/11/21 13:58:43;;;;;;;9.87;8.63;;;6.80;99.90;;;;;;5015633;28;20898;-69
2021/11/21 14:01:12;;;;;;;12.27;10.13;;;6.80;99.90;;;;;;5015348;28;20883;-70
2021/11/21 14:03:43;;;;;;;11.10;9.10;;;6.80;99.90;;;;;;5015648;28;20464;-70
2021/11/21 14:06:11;;;;;;;10.60;8.40;;;6.80;99.90;;;;;;5016464;28;20445;-69
2021/11/21 14:08:39;;;;;;;9.63;8.60;;;6.80;99.90;;;;;;5015585;28;20453;-70
2021/11/21 14:11:07;;;;;;;9.57;8.57;;;6.80;99.90;;;;;;5015400;28;20564;-70
2021/11/21 14:13:40;;;;;;;10.40;8.63;;;6.80;99.90;;;;;;5015290;28;20485;-70
2021/11/21 14:16:08;;;;;;;9.83;7.37;;;6.80;99.90;;;;;;5015160;28;21001;-68
2021/11/21 14:18:46;;;;;;;8.47;7.67;;;6.70;99.90;;;;;;5015322;28;20453;-69
2021/11/21 14:21:21;;;;;;;8.27;7.10;;;6.60;99.90;;;;;;5015577;28;20477;-69
2021/11/21 14:23:49;;;;;;;7.73;7.00;;;6.70;99.90;;;;;;5014974;28;20548;-69
2021/11/21 14:26:18;;;;;;;8.23;7.20;;;6.60;99.90;;;;;;5015106;28;20437;-69
2021/11/21 14:28:47;;;;;;;7.63;6.83;;;6.60;99.90;;;;;;5015221;28;20453;-68
2021/11/21 14:31:16;;;;;;;9.30;6.97;;;6.50;99.90;;;;;;5014916;28;20564;-69
2021/11/21 14:33:46;;;;;;;7.50;6.80;;;6.60;99.90;;;;;;5015153;28;20457;-70
2021/11/21 14:36:16;;;;;;;7.47;6.43;;;6.60;99.90;;;;;;5016102;28;20448;-68
2021/11/21 14:38:55;;;;;;;11.43;8.50;;;6.60;99.90;;;;;;5014968;28;20818;-70
2021/11/21 14:41:23;;;;;;;9.23;8.30;;;6.60;99.90;;;;;;5015377;28;20473;-69
2021/11/21 14:43:50;;;;;;;10.10;9.07;;;6.70;99.90;;;;;;5016458;28;20457;-69
2021/11/21 14:46:18;;;;;;;14.07;10.13;;;6.80;99.90;;;;;;5018539;28;20545;-69
2021/11/21 14:48:51;;;;;;;11.40;8.77;;;6.80;99.90;;;;;;5015096;28;20453;-69
2021/11/21 14:51:20;;;;;;;10.73;8.30;;;6.80;99.90;;;;;;5014542;28;21035;-68
2021/11/21 14:53:47;;;;;;;9.37;8.00;;;6.70;99.90;;;;;;5014276;28;20464;-68
2021/11/21 14:56:17;;;;;;;7.70;7.00;;;6.80;99.90;;;;;;5014214;28;20949;-69
2021/11/21 14:58:46;;;;;;;9.30;6.30;;;6.80;99.90;;;;;;5014501;28;20461;-69
2021/11/21 15:01:15;;;;;;;7.33;6.50;;;6.80;99.90;;;;;;5014018;28;20481;-69
2021/11/21 15:03:42;;;;;;;6.20;5.60;;;6.80;99.90;;;;;;5014796;28;20512;-69
2021/11/21 15:06:11;;;;;;;5.80;5.20;;;6.80;99.90;;;;;;5013598;28;20461;-69
2021/11/21 15:08:38;;;;;;;5.80;5.40;;;6.80;99.90;;;;;;5014395;28;20493;-70
2021/11/21 15:11:06;;;;;;;6.97;6.37;;;6.80;99.90;;;;;;5014379;28;20827;-69
2021/11/21 15:13:33;;;;;;;6.33;5.73;;;6.80;99.90;;;;;;5014239;28;20948;-70
2021/11/21 15:16:00;;;;;;;6.80;6.10;;;6.80;99.90;;;;;;5014780;28;21009;-69
2021/11/21 15:18:27;;;;;;;6.77;6.17;;;6.80;99.90;;;;;;5015005;28;20512;-70
2021/11/21 15:20:53;;;;;;;7.13;6.43;;;6.90;99.90;;;;;;5014250;28;20988;-69
2021/11/21 15:23:22;;;;;;;7.10;6.47;;;6.90;99.90;;;;;;5014113;28;20464;-70
2021/11/21 15:25:48;;;;;;;6.40;5.80;;;6.90;99.90;;;;;;5015569;28;20480;-68
2021/11/21 15:28:15;;;;;;;8.00;6.60;;;6.90;99.90;;;;;;5015280;28;20819;-71
2021/11/21 15:30:42;;;;;;;8.83;7.17;;;6.90;99.90;;;;;;5014991;28;20477;-69
2021/11/21 15:33:09;;;;;;;8.23;7.30;;;7.00;99.90;;;;;;5014729;28;20483;-69
2021/11/21 15:35:36;;;;;;;7.63;6.73;;;6.90;99.90;;;;;;5015193;28;20460;-68
2021/11/21 15:38:04;;;;;;;7.67;6.50;;;6.90;99.90;;;;;;5014715;28;20544;-69
2021/11/21 15:40:32;;;;;;;7.07;6.37;;;7.00;99.90;;;;;;5013914;28;20564;-70
2021/11/21 15:43:00;;;;;;;6.13;5.53;;;6.90;99.90;;;;;;5014627;28;20457;-69
2021/11/21 15:45:26;;;;;;;8.73;5.90;;;6.90;99.90;;;;;;5014348;28;20525;-69
2021/11/21 15:47:53;;;;;;;6.30;5.70;;;6.90;99.90;;;;;;5014266;28;20512;-67
2021/11/21 15:50:21;;;;;;;7.30;6.60;;;6.90;99.90;;;;;;5013844;28;20456;-64
2021/11/21 15:52:49;;;;;;;7.23;6.53;;;7.00;99.90;;;;;;5014137;28;20540;-70
2021/11/21 15:55:17;;;;;;;6.17;5.60;;;7.10;99.90;;;;;;5014111;28;20520;-69
2021/11/21 15:57:45;;;;;;;6.90;6.30;;;7.20;99.90;;;;;;5013889;28;20457;-69
2021/11/21 16:00:13;;;;;;;8.33;7.63;;;7.20;99.90;;;;;;5013836;28;20892;-69
2021/11/21 16:02:40;;;;;;;7.67;7.00;;;7.20;99.90;;;;;;5013633;28;20516;-70
2021/11/21 16:05:07;;;;;;;7.60;6.90;;;7.10;99.90;;;;;;5014116;28;20449;-70
2021/11/21 16:07:39;;;;;;;7.20;6.60;;;7.10;99.90;;;;;;5014158;28;20453;-69
2021/11/21 16:10:07;;;;;;;8.37;7.63;;;7.10;99.90;;;;;;5014303;28;20465;-70
2021/11/21 16:12:33;;;;;;;7.93;6.53;;;7.10;99.90;;;;;;5014201;28;20572;-70
2021/11/21 16:15:02;;;;;;;7.17;6.43;;;7.00;99.90;;;;;;5014515;28;20508;-69
2021/11/21 16:17:29;;;;;;;7.23;6.57;;;7.00;99.90;;;;;;5017694;28;20444;-69
2021/11/21 16:19:56;;;;;;;8.07;6.60;;;7.00;99.90;;;;;;5018493;28;20456;-69
2021/11/21 16:22:23;;;;;;;7.40;6.60;;;7.00;99.90;;;;;;5017519;28;20469;-69
2021/11/21 16:24:50;;;;;;;8.87;7.70;;;7.00;99.90;;;;;;5017604;28;20460;-69
2021/11/21 16:27:17;;;;;;;8.77;7.60;;;7.00;99.90;;;;;;5017650;28;20504;-69
2021/11/21 16:29:44;;;;;;;7.40;6.73;;;7.00;99.90;;;;;;5016937;28;20457;-70
2021/11/21 16:32:12;;;;;;;10.53;9.40;;;7.00;99.90;;;;;;5016740;28;20979;-70
2021/11/21 16:34:40;;;;;;;13.77;12.37;;;7.00;99.90;;;;;;5017422;28;20503;-70
2021/11/21 16:37:07;;;;;;;14.53;13.07;;;7.00;99.90;;;;;;5017512;28;20551;-70
2021/11/21 16:39:34;;;;;;;10.80;9.00;;;7.00;99.90;;;;;;5017115;28;20511;-70
2021/11/21 16:42:01;;;;;;;11.07;9.93;;;7.00;99.90;;;;;;5016947;28;20473;-70
2021/11/21 16:44:29;;;;;;;8.77;7.87;;;7.00;99.90;;;;;;5017275;28;20458;-70
2021/11/21 16:46:56;;;;;;;12.97;11.67;;;7.00;99.90;;;;;;5017124;28;20540;-70
2021/11/21 16:49:24;;;;;;;9.53;8.37;;;6.90;99.90;;;;;;5017143;28;20506;-69
2021/11/21 16:51:51;;;;;;;9.23;8.33;;;6.90;99.90;;;;;;5016874;28;20481;-70
2021/11/21 16:54:18;;;;;;;9.57;8.60;;;6.90;99.90;;;;;;5017200;28;20457;-70
2021/11/21 16:56:45;;;;;;;15.63;12.10;;;6.90;99.90;;;;;;5016353;28;20485;-70
2021/11/21 16:59:12;;;;;;;12.50;10.27;;;6.80;99.90;;;;;;5016543;28;20816;-69
2021/11/21 17:01:39;;;;;;;13.97;11.67;;;6.80;99.90;;;;;;5016519;28;20481;-71
2021/11/21 17:04:06;;;;;;;12.27;11.07;;;6.80;99.90;;;;;;5016613;28;20813;-70
2021/11/21 17:06:34;;;;;;;12.00;10.20;;;6.80;99.90;;;;;;5016155;28;20940;-70
2021/11/21 17:09:02;;;;;;;10.20;9.10;;;6.80;99.90;;;;;;5016735;28;20457;-70
2021/11/21 17:11:29;;;;;;;11.67;9.43;;;6.80;99.90;;;;;;5016531;28;20481;-70
2021/11/21 17:13:57;;;;;;;9.10;8.20;;;6.80;99.90;;;;;;5016476;28;20461;-69
2021/11/21 17:16:24;;;;;;;10.10;8.40;;;6.80;99.90;;;;;;5016776;28;20438;-69
2021/11/21 17:18:51;;;;;;;9.00;8.10;;;6.80;99.90;;;;;;5016662;28;20457;-69
2021/11/21 17:21:18;;;;;;;9.37;8.43;;;6.80;99.90;;;;;;5016225;28;20473;-68
2021/11/21 17:23:46;;;;;;;13.80;9.20;;;6.80;99.90;;;;;;5016673;28;20457;-70
2021/11/21 17:26:13;;;;;;;10.70;9.60;;;6.80;99.90;;;;;;5016277;28;20455;-70
2021/11/21 17:28:40;;;;;;;9.67;8.70;;;6.80;99.90;;;;;;5015951;28;20205;-70
2021/11/21 17:31:06;;;;;;;10.50;9.43;;;6.80;99.90;;;;;;5016099;28;20477;-69
2021/11/21 17:33:33;;;;;;;10.03;9.07;;;6.90;99.90;;;;;;5015976;28;20511;-70
2021/11/21 17:36:01;;;;;;;10.43;8.93;;;6.90;99.90;;;;;;5016369;28;20827;-70
2021/11/21 17:38:28;;;;;;;10.90;8.83;;;6.90;99.90;;;;;;5016073;28;20454;-70
2021/11/21 17:40:56;;;;;;;10.87;9.77;;;6.90;99.90;;;;;;5016081;28;20477;-71
2021/11/21 17:43:23;;;;;;;10.80;9.70;;;6.90;99.90;;;;;;5015460;28;20461;-70
2021/11/21 17:45:50;;;;;;;12.80;10.50;;;6.90;99.90;;;;;;5015374;28;20952;-70
2021/11/21 17:48:21;;;;;;;10.63;9.53;;;6.90;99.90;;;;;;5015697;28;20457;-70
2021/11/21 17:50:49;;;;;;;12.03;9.40;;;6.90;99.90;;;;;;5016509;28;20477;-70
2021/11/21 17:53:16;;;;;;;11.97;10.63;;;6.90;99.90;;;;;;5015766;28;20485;-70
2021/11/21 17:55:43;;;;;;;11.30;10.20;;;6.90;99.90;;;;;;5015446;28;20945;-70